Carlsbad Caverns National Park, NM

10:51 AM MDT on October 25, 2014 (GMT -0600)
Cavern City | Change Station
CLOSE
Current Station
Airport
Location: Carlsbad,
Elevation: 3294 ft
Nearby Weather Stations

Elev 3294 ft 32.33 °N, 104.26 °W | Updated 58 minutes ago

Clear
Clear
66 °F
Feels Like 66 °F
N
0
Wind Variable Wind from North

Today
High -- | Low -- °F
--% Chance of Precip.
Yesterday
High -- | Low -- °F
Precip. -- in
7:08 AM 6:13 PM
Waxing Crescent, 3% visible
Pressure 30.10 in
Visibility 10.0 miles
Clouds Clear
Dew Point 57 °F
Humidity 73%
Rainfall 0.00 in
Snow Depth Not available.
UV 3 out of 12
Pollen 5.70 out of 12
Air Quality Not available.
Flu Activity Sporadic
METAR KCNM 251553Z AUTO 00000KT 10SM CLR 19/14 A3021 RMK AO2 SLP192 T01890139

More Conditions Fewer Conditions

Pressure 30.10 in
Visibility 10.0 miles
Clouds Clear
Dew Point 57 °F
Humidity 73%
Rainfall 0.00 in
Snow Depth Not available.
UV 3 out of 12
Pollen 5.70 out of 12
Air Quality Not available.
Flu Activity Sporadic
METAR KCNM 251553Z AUTO 00000KT 10SM CLR 19/14 A3021 RMK AO2 SLP192 T01890139

More Conditions Fewer Conditions

10-Day Weather Forecast

Almanac

Astronomy

Oct. 25, 2014 Rise Set
Actual Time 7:08 AM MDT 6:13 PM MDT
Civil Twilight 6:43 AM MDT 6:38 PM MDT
Nautical Twilight 6:14 AM MDT 7:06 PM MDT
Astronomical Twilight 5:46 AM MDT 7:35 PM MDT
Moon 8:45 AM MDT 7:42 PM MDT
Length of Visible Light 11h 54m
Length of Day
11h 04m
Tomorrow will be 1m 49s shorter.
Waxing Crescent, 3% of the Moon is Illuminated
Today
Waxing Crescent
Oct 30
First Quarter
Nov 6
Full
Nov 14
Last Quarter
Nov 22
New

Today's Extremes

State Highs State Lows

Community

WunderPhotos

Upload Photos

1,764,901 photos uploaded!

Nearby

Snow Depth

Station Depth Elevation
Sierra Blanca 0 in 10280 ft
McKnight Cabin 0 in 9240 ft
Signal Peak 0 in 8360 ft
Wesner Springs 0 in 11120 ft
Elk Cabin 0 in 8210 ft

Earthquake Activity

City Distance Mag. Time & Date
No recent earthquake activity has been reported nearby.
Minimum magnitude displayed is 2.5.

Coastal Water Temperatures

Place Temperature
No Stations Reporting

Nearby Weather Stations